Time;durP1;ratioP1;P1;durP2;ratioP2;P2;SDS_P1;SDS_P2;PMS_P1;PMS_P2;Temp;Humidity;BMP_temperature;BMP_pressure;BME280_temperature;BME280_humidity;BME280_pressure;Samples;Min_cycle;Max_cycle;Signal;HPM_P1;HPM_P2
2023/11/17 00:01:30;;;;;;;4.40;3.53;;;9.30;79.40;;;;;;4918164;29;20111;-77
2023/11/17 00:03:56;;;;;;;5.15;3.80;;;9.20;79.40;;;;;;4916916;29;20036;-77
2023/11/17 00:06:22;;;;;;;4.90;3.60;;;9.30;79.40;;;;;;4923050;29;20106;-77
2023/11/17 00:08:48;;;;;;;5.47;3.72;;;9.20;79.40;;;;;;4904458;29;20066;-77
2023/11/17 00:11:13;;;;;;;4.03;3.35;;;9.20;79.40;;;;;;4920785;29;20044;-76
2023/11/17 00:13:40;;;;;;;4.85;3.92;;;9.20;79.40;;;;;;4920052;29;20350;-76
2023/11/17 00:16:09;;;;;;;4.35;3.25;;;9.20;79.40;;;;;;4920524;29;20039;-77
2023/11/17 00:18:39;;;;;;;4.15;3.40;;;9.20;79.50;;;;;;4920779;29;20488;-77
2023/11/17 00:21:06;;;;;;;4.78;3.13;;;9.20;79.50;;;;;;4888618;29;20350;-77
2023/11/17 00:23:32;;;;;;;5.25;3.83;;;9.10;79.30;;;;;;4904480;29;20142;-77
2023/11/17 00:25:59;;;;;;;4.63;3.65;;;9.10;79.40;;;;;;4919884;29;20040;-76
2023/11/17 00:28:25;;;;;;;4.22;3.28;;;9.10;79.40;;;;;;4904807;29;20043;-77
2023/11/17 00:30:53;;;;;;;4.50;3.38;;;9.10;79.40;;;;;;4919588;29;20040;-77
2023/11/17 00:33:19;;;;;;;4.65;3.45;;;9.10;79.40;;;;;;4888396;29;20453;-77
2023/11/17 00:35:48;;;;;;;5.00;3.75;;;9.10;79.40;;;;;;4919101;29;20466;-76
2023/11/17 00:38:13;;;;;;;4.07;3.30;;;9.10;79.40;;;;;;4904383;29;20067;-76
2023/11/17 00:40:39;;;;;;;5.28;3.90;;;9.00;79.40;;;;;;4919459;29;20031;-77
2023/11/17 00:43:05;;;;;;;4.72;3.60;;;9.10;79.40;;;;;;4904326;29;20480;-77
2023/11/17 00:45:31;;;;;;;4.88;3.83;;;9.10;79.40;;;;;;4936930;29;20464;-77
2023/11/17 00:47:58;;;;;;;4.03;3.38;;;9.00;79.30;;;;;;4936682;29;20080;-76
2023/11/17 00:50:24;;;;;;;5.13;3.90;;;9.00;79.30;;;;;;4903648;29;20059;-77
2023/11/17 00:52:49;;;;;;;4.35;3.45;;;9.00;79.30;;;;;;4919412;29;20035;-76
2023/11/17 00:55:15;;;;;;;4.75;3.72;;;9.00;79.30;;;;;;4936335;29;20035;-77
2023/11/17 00:57:42;;;;;;;4.47;3.60;;;9.00;79.30;;;;;;4919150;29;20046;-77
2023/11/17 01:00:11;;;;;;;4.75;3.75;;;9.00;79.30;;;;;;4936811;29;20032;-76
2023/11/17 01:02:41;;;;;;;4.57;3.75;;;8.90;79.30;;;;;;4919799;29;20036;-76
2023/11/17 01:05:07;;;;;;;4.07;3.25;;;8.90;79.30;;;;;;4935975;29;20473;-77
2023/11/17 01:07:34;;;;;;;4.43;3.33;;;8.90;79.30;;;;;;4936682;29;20062;-77
2023/11/17 01:10:00;;;;;;;5.30;3.75;;;8.90;79.30;;;;;;4919292;29;20056;-77
2023/11/17 01:12:26;;;;;;;4.68;3.55;;;8.90;79.30;;;;;;4918998;29;20086;-77
2023/11/17 01:14:52;;;;;;;4.70;3.45;;;8.90;79.30;;;;;;4919554;29;20122;-76
2023/11/17 01:17:18;;;;;;;4.55;3.60;;;8.90;79.30;;;;;;4904011;29;20075;-76
2023/11/17 01:19:45;;;;;;;3.72;3.20;;;8.80;79.30;;;;;;4919834;29;20437;-76
2023/11/17 01:22:12;;;;;;;5.10;3.60;;;8.80;79.30;;;;;;4936341;29;20036;-77
2023/11/17 01:24:38;;;;;;;4.93;3.38;;;8.80;79.30;;;;;;4918977;29;20038;-77
2023/11/17 01:27:05;;;;;;;4.90;3.80;;;8.80;79.30;;;;;;4919167;29;20047;-77
2023/11/17 01:29:32;;;;;;;4.88;3.90;;;8.80;79.30;;;;;;4903384;29;20064;-76
2023/11/17 01:31:58;;;;;;;4.40;3.45;;;8.80;79.30;;;;;;4936296;29;20055;-77
2023/11/17 01:34:25;;;;;;;4.78;3.42;;;8.80;79.30;;;;;;4918848;29;20036;-77
2023/11/17 01:36:51;;;;;;;5.00;3.85;;;8.80;79.30;;;;;;4918828;29;20057;-77
2023/11/17 01:39:20;;;;;;;5.05;3.70;;;8.80;79.30;;;;;;4935575;29;20115;-76
2023/11/17 01:41:50;;;;;;;5.90;3.88;;;8.70;79.20;;;;;;4919016;29;20035;-77
2023/11/17 01:44:16;;;;;;;4.82;3.50;;;8.70;79.30;;;;;;4918749;29;20040;-77
2023/11/17 01:46:45;;;;;;;5.63;4.20;;;8.70;79.20;;;;;;4919880;29;20154;-76
2023/11/17 01:49:12;;;;;;;5.40;3.80;;;8.70;79.30;;;;;;4923373;29;20087;-76
2023/11/17 01:51:38;;;;;;;4.85;3.60;;;8.70;79.20;;;;;;4906937;29;20035;-77
2023/11/17 01:54:05;;;;;;;5.07;3.80;;;8.70;79.30;;;;;;4922313;29;20050;-77
2023/11/17 01:56:32;;;;;;;5.03;4.22;;;8.70;79.30;;;;;;4922577;29;20036;-77
2023/11/17 01:58:58;;;;;;;4.57;3.60;;;8.60;79.20;;;;;;4906411;29;20054;-77
2023/11/17 02:01:27;;;;;;;5.65;3.83;;;8.60;79.20;;;;;;4906708;29;20068;-77
2023/11/17 02:03:55;;;;;;;3.95;3.22;;;8.60;79.30;;;;;;4906624;29;20477;-77
2023/11/17 02:06:27;;;;;;;5.25;3.75;;;8.60;79.20;;;;;;4890963;29;20086;-77
2023/11/17 02:09:20;;;;;;;4.88;3.70;;;8.60;79.20;;;;;;4906578;29;20063;-77
2023/11/17 02:12:15;;;;;;;4.65;3.80;;;8.60;79.30;;;;;;4906455;29;20493;-76
2023/11/17 02:14:47;;;;;;;4.28;3.35;;;8.60;79.30;;;;;;4921862;29;20040;-76
2023/11/17 02:17:15;;;;;;;4.93;3.83;;;8.60;79.20;;;;;;4922336;29;20464;-76
2023/11/17 02:19:45;;;;;;;4.20;3.53;;;8.60;79.30;;;;;;4906347;29;20038;-77
2023/11/17 02:22:19;;;;;;;5.75;4.38;;;8.50;79.20;;;;;;4907382;29;20044;-76
2023/11/17 02:25:10;;;;;;;5.00;3.73;;;8.50;79.30;;;;;;4890828;29;20035;-77
2023/11/17 02:27:40;;;;;;;4.53;3.70;;;8.50;79.30;;;;;;4938996;29;20358;-76
2023/11/17 02:30:08;;;;;;;5.90;4.43;;;8.50;79.20;;;;;;4922025;29;20024;-77
2023/11/17 02:32:38;;;;;;;4.38;3.45;;;8.50;79.20;;;;;;4921657;29;20031;-76
2023/11/17 02:35:06;;;;;;;5.63;4.30;;;8.50;79.20;;;;;;4921517;29;20032;-77
2023/11/17 02:37:32;;;;;;;4.45;3.60;;;8.50;79.20;;;;;;4921583;29;20047;-76
2023/11/17 02:39:57;;;;;;;5.18;3.92;;;8.50;79.20;;;;;;4922219;29;20063;-76
2023/11/17 02:42:26;;;;;;;5.10;3.85;;;8.40;79.20;;;;;;4905765;29;20162;-76
2023/11/17 02:44:52;;;;;;;4.70;4.00;;;8.40;79.20;;;;;;4938264;29;20111;-77
2023/11/17 02:47:27;;;;;;;4.75;3.88;;;8.50;79.20;;;;;;4905600;29;20186;-77
2023/11/17 02:50:09;;;;;;;4.95;3.88;;;8.50;79.30;;;;;;4921574;29;20536;-76
2023/11/17 02:55:35;;;;;;;4.18;3.42;;;8.40;79.20;;;;;;4858475;29;20040;-77
2023/11/17 02:58:03;;;;;;;4.80;3.83;;;8.50;79.20;;;;;;4920293;29;20028;-77
2023/11/17 03:00:30;;;;;;;4.65;3.55;;;8.40;79.20;;;;;;4921215;29;20127;-77
2023/11/17 03:02:59;;;;;;;4.70;3.70;;;8.40;79.20;;;;;;4905744;29;20040;-76
2023/11/17 03:05:28;;;;;;;5.05;3.78;;;8.40;79.20;;;;;;4938348;29;20182;-76
2023/11/17 03:07:54;;;;;;;4.85;3.90;;;8.40;79.20;;;;;;4918534;29;20062;-76
2023/11/17 03:10:21;;;;;;;5.80;4.13;;;8.40;79.20;;;;;;4918663;29;20048;-77
2023/11/17 03:12:46;;;;;;;4.43;3.65;;;8.40;79.20;;;;;;4886816;29;20036;-76
2023/11/17 03:15:12;;;;;;;4.57;3.65;;;8.40;79.20;;;;;;4902279;29;20450;-77
2023/11/17 03:17:41;;;;;;;4.82;3.75;;;8.40;79.20;;;;;;4918085;29;20091;-76
2023/11/17 03:20:16;;;;;;;4.70;3.63;;;8.40;79.20;;;;;;4918347;29;20457;-76
2023/11/17 03:22:44;;;;;;;;;;;8.30;79.20;;;;;;4904046;29;20096;-77
2023/11/17 03:25:17;;;;;;;4.32;3.30;;;8.30;79.10;;;;;;4902197;29;20250;-78
2023/11/17 03:27:50;;;;;;;4.68;3.33;;;8.30;79.00;;;;;;4887457;29;20032;-76
2023/11/17 03:30:17;;;;;;;4.53;3.65;;;8.30;79.10;;;;;;4917713;29;20043;-76
2023/11/17 03:32:50;;;;;;;5.35;3.88;;;8.30;79.20;;;;;;4918809;29;20047;-77
2023/11/17 03:35:20;;;;;;;4.68;3.70;;;8.30;79.20;;;;;;4918787;29;20076;-77
2023/11/17 03:37:47;;;;;;;4.60;3.60;;;8.30;79.20;;;;;;4918277;29;20028;-76
2023/11/17 03:40:15;;;;;;;5.20;4.18;;;8.30;79.20;;;;;;4918119;29;20045;-76
2023/11/17 03:42:40;;;;;;;4.72;3.90;;;8.30;79.20;;;;;;4886423;29;20072;-76
2023/11/17 03:45:07;;;;;;;4.90;4.10;;;8.30;79.20;;;;;;4917918;29;20059;-77
2023/11/17 03:47:35;;;;;;;5.05;3.97;;;8.30;79.20;;;;;;4917571;29;20039;-76
2023/11/17 03:50:03;;;;;;;5.15;4.10;;;8.20;79.20;;;;;;4917292;29;20107;-77
2023/11/17 03:52:32;;;;;;;6.00;4.22;;;8.20;79.20;;;;;;4917494;29;20032;-76
2023/11/17 03:55:01;;;;;;;5.30;4.15;;;8.20;79.20;;;;;;4917134;29;20075;-76
2023/11/17 03:57:28;;;;;;;4.43;3.47;;;8.20;79.20;;;;;;4918334;29;20040;-77
2023/11/17 03:59:54;;;;;;;5.50;4.20;;;8.20;79.20;;;;;;4901442;29;20032;-76
2023/11/17 04:02:23;;;;;;;5.57;4.38;;;8.20;79.20;;;;;;4918276;29;20043;-76
2023/11/17 04:04:49;;;;;;;4.97;4.07;;;8.20;79.20;;;;;;4917078;29;20035;-76
2023/11/17 04:07:15;;;;;;;5.50;4.13;;;8.20;79.20;;;;;;4885769;29;20060;-77
2023/11/17 04:09:41;;;;;;;5.80;4.20;;;8.20;79.20;;;;;;4917364;29;20075;-76
2023/11/17 04:12:09;;;;;;;4.63;3.75;;;8.20;79.20;;;;;;4916958;29;20064;-76
2023/11/17 04:14:39;;;;;;;5.53;4.35;;;8.20;79.20;;;;;;4917134;29;20024;-75
2023/11/17 04:17:08;;;;;;;5.18;3.92;;;8.20;79.20;;;;;;4917136;29;20036;-76
2023/11/17 04:19:35;;;;;;;5.32;4.50;;;8.10;79.20;;;;;;4901700;29;20526;-76
2023/11/17 04:22:01;;;;;;;5.75;4.60;;;8.10;79.20;;;;;;4916989;29;20052;-75
2023/11/17 04:24:28;;;;;;;5.32;4.40;;;8.10;79.20;;;;;;4901284;29;20031;-74
2023/11/17 04:26:55;;;;;;;5.75;4.28;;;8.10;79.20;;;;;;4917455;29;20400;-75
2023/11/17 04:29:21;;;;;;;5.40;3.95;;;8.10;79.20;;;;;;4901166;29;20140;-75
2023/11/17 04:31:48;;;;;;;4.97;4.03;;;8.10;79.20;;;;;;4916532;29;20511;-76
2023/11/17 04:34:14;;;;;;;5.82;4.18;;;8.10;79.80;;;;;;4916372;29;20036;-75
2023/11/17 04:36:40;;;;;;;5.43;4.30;;;8.10;79.20;;;;;;4900831;29;20035;-76
2023/11/17 04:39:17;;;;;;;5.60;4.13;;;8.10;79.20;;;;;;4917522;29;20084;-76
2023/11/17 04:41:43;;;;;;;5.50;4.13;;;8.10;79.20;;;;;;4918043;29;20046;-75
2023/11/17 04:44:09;;;;;;;6.22;4.50;;;8.10;79.20;;;;;;4917882;29;20032;-75
2023/11/17 04:46:35;;;;;;;5.50;4.13;;;8.10;79.20;;;;;;4916264;29;20116;-75
2023/11/17 04:49:01;;;;;;;4.70;3.80;;;8.10;79.20;;;;;;4900285;29;20036;-75
2023/11/17 04:51:26;;;;;;;4.95;4.20;;;8.10;79.20;;;;;;4917192;29;20458;-75
2023/11/17 04:53:52;;;;;;;5.50;4.47;;;8.10;79.20;;;;;;4900470;29;20036;-76
2023/11/17 04:56:18;;;;;;;5.50;4.35;;;8.10;79.20;;;;;;4917162;29;20036;-75
2023/11/17 04:58:44;;;;;;;5.30;4.25;;;8.10;79.20;;;;;;4900874;29;20032;-75
2023/11/17 05:01:19;;;;;;;5.72;4.25;;;8.10;79.20;;;;;;4885707;29;20032;-75
2023/11/17 05:03:45;;;;;;;5.25;4.30;;;8.10;79.80;;;;;;4916031;29;20040;-75
2023/11/17 05:06:11;;;;;;;5.88;4.38;;;8.10;79.20;;;;;;4917605;29;20059;-76
2023/11/17 05:08:37;;;;;;;5.82;4.35;;;8.10;79.20;;;;;;4936566;29;20035;-75
2023/11/17 05:11:04;;;;;;;6.85;4.97;;;8.10;79.20;;;;;;4903680;29;20043;-75
2023/11/17 05:13:31;;;;;;;5.40;4.53;;;8.10;79.20;;;;;;4936284;29;20042;-76
2023/11/17 05:15:57;;;;;;;5.20;4.05;;;8.10;79.20;;;;;;4936064;29;20032;-75
2023/11/17 05:18:23;;;;;;;5.18;4.18;;;8.10;79.20;;;;;;4919145;29;20062;-75
2023/11/17 05:20:49;;;;;;;5.38;4.32;;;8.10;79.20;;;;;;4903057;29;20032;-75
2023/11/17 05:23:16;;;;;;;5.45;4.25;;;8.10;79.20;;;;;;4903635;29;20042;-75
2023/11/17 05:25:43;;;;;;;6.25;4.95;;;8.10;79.20;;;;;;4919505;29;20032;-76
2023/11/17 05:28:09;;;;;;;5.57;4.15;;;8.10;79.30;;;;;;4936005;29;20516;-76
2023/11/17 05:30:35;;;;;;;5.03;4.18;;;8.10;79.20;;;;;;4903069;29;20035;-76
2023/11/17 05:33:02;;;;;;;5.28;4.40;;;8.10;79.20;;;;;;4903397;29;20477;-75
2023/11/17 05:35:28;;;;;;;5.40;4.38;;;8.10;79.30;;;;;;4903147;29;20130;-75
2023/11/17 05:37:54;;;;;;;6.03;4.88;;;8.10;79.30;;;;;;4936197;29;20066;-76
2023/11/17 05:40:19;;;;;;;5.80;4.70;;;8.10;79.20;;;;;;4918545;29;20043;-77
2023/11/17 05:42:45;;;;;;;5.78;4.47;;;8.10;79.30;;;;;;4903339;29;20036;-76
2023/11/17 05:45:14;;;;;;;5.95;4.43;;;8.10;79.20;;;;;;4902682;29;20039;-77
2023/11/17 05:47:40;;;;;;;5.90;4.60;;;8.10;79.20;;;;;;4903196;29;20152;-76
2023/11/17 05:50:11;;;;;;;5.07;4.25;;;8.10;79.20;;;;;;4919198;29;20185;-75
2023/11/17 05:52:39;;;;;;;5.30;4.20;;;8.10;79.30;;;;;;4918705;29;20039;-75
2023/11/17 05:55:06;;;;;;;5.38;4.47;;;8.10;79.30;;;;;;4936026;29;20024;-75
2023/11/17 05:57:32;;;;;;;5.95;4.35;;;8.10;79.30;;;;;;4903019;29;20118;-76
2023/11/17 05:59:57;;;;;;;5.05;4.25;;;8.10;79.30;;;;;;4887468;29;20118;-76
2023/11/17 06:02:24;;;;;;;5.18;4.40;;;8.10;79.30;;;;;;4936550;29;20031;-76
2023/11/17 06:04:50;;;;;;;5.40;4.30;;;8.10;79.30;;;;;;4903432;29;20496;-76
2023/11/17 06:07:16;;;;;;;5.00;4.20;;;8.10;79.30;;;;;;4887140;29;20079;-75
2023/11/17 06:09:43;;;;;;;5.45;4.60;;;8.10;79.30;;;;;;4936428;29;20044;-75
2023/11/17 06:12:15;;;;;;;5.20;4.10;;;8.10;79.30;;;;;;4935499;29;20035;-76
2023/11/17 06:14:41;;;;;;;5.43;4.32;;;8.10;79.30;;;;;;4936188;29;20050;-76
2023/11/17 07:43:07;;;;;;;4.60;3.33;;;7.90;79.50;;;;;;5181582;23;20069;-78
2023/11/17 07:45:33;;;;;;;5.25;4.13;;;7.90;79.30;;;;;;4938121;29;20153;-74
2023/11/17 07:47:59;;;;;;;4.70;4.05;;;7.90;79.50;;;;;;4933783;29;20472;-74
2023/11/17 07:50:26;;;;;;;5.00;4.20;;;7.90;79.50;;;;;;4941758;28;20032;-75
2023/11/17 07:52:52;;;;;;;5.70;4.45;;;7.90;79.50;;;;;;4946113;29;20097;-74
2023/11/17 07:55:18;;;;;;;5.32;4.00;;;7.90;79.50;;;;;;4953257;29;20118;-75
2023/11/17 07:57:44;;;;;;;5.43;4.07;;;8.00;79.50;;;;;;4954343;29;20567;-75
2023/11/17 08:00:25;;;;;;;5.85;4.45;;;8.00;79.50;;;;;;4944942;29;20041;-75
2023/11/17 08:02:50;;;;;;;5.82;4.45;;;8.00;79.50;;;;;;4943372;29;20082;-75
2023/11/17 08:05:16;;;;;;;6.35;4.25;;;8.00;79.50;;;;;;4953802;29;20119;-74
2023/11/17 08:07:42;;;;;;;5.57;4.20;;;8.00;79.50;;;;;;4934876;29;20036;-74
2023/11/17 08:10:09;;;;;;;5.05;3.95;;;8.00;79.50;;;;;;4945954;29;20046;-75
2023/11/17 08:12:34;;;;;;;5.60;4.50;;;8.10;79.50;;;;;;4954544;28;20023;-75
2023/11/17 08:15:02;;;;;;;4.85;3.88;;;8.10;79.50;;;;;;4938121;29;20035;-75
2023/11/17 08:17:27;;;;;;;5.22;4.32;;;8.00;79.50;;;;;;4935483;29;20046;-75
2023/11/17 08:19:54;;;;;;;4.68;3.97;;;8.10;79.50;;;;;;4937597;29;20039;-75
2023/11/17 08:22:20;;;;;;;5.18;4.05;;;8.10;79.50;;;;;;4937661;29;20069;-75
2023/11/17 08:24:46;;;;;;;5.53;4.55;;;8.10;79.50;;;;;;4955056;29;20031;-74
2023/11/17 08:27:14;;;;;;;5.45;4.25;;;8.10;79.50;;;;;;4943546;29;20043;-75
2023/11/17 08:29:39;;;;;;;5.55;4.38;;;8.10;79.50;;;;;;4951690;29;20420;-74
2023/11/17 08:32:07;;;;;;;6.60;4.63;;;8.10;79.50;;;;;;4953269;29;20035;-75
2023/11/17 08:34:33;;;;;;;5.18;4.10;;;8.10;79.50;;;;;;4921725;29;20118;-75
2023/11/17 08:36:59;;;;;;;5.57;4.38;;;8.10;79.50;;;;;;4953577;29;20031;-75
2023/11/17 08:39:25;;;;;;;6.10;4.45;;;8.10;79.50;;;;;;4952517;29;20050;-76
2023/11/17 08:41:54;;;;;;;5.15;4.03;;;8.10;79.50;;;;;;4924652;29;20488;-75
2023/11/17 08:44:21;;;;;;;5.85;4.60;;;8.20;79.60;;;;;;4953454;29;20038;-75
2023/11/17 08:46:49;;;;;;;5.38;4.32;;;8.20;79.50;;;;;;4954563;28;20395;-74
2023/11/17 08:49:16;;;;;;;4.47;4.00;;;8.20;79.50;;;;;;4942282;29;20058;-75
2023/11/17 08:51:43;;;;;;;5.20;4.25;;;8.20;79.50;;;;;;4937423;29;20527;-75
2023/11/17 08:54:09;;;;;;;5.45;4.35;;;8.20;79.50;;;;;;4953534;29;20027;-75
2023/11/17 08:56:35;;;;;;;5.72;4.32;;;8.20;79.50;;;;;;4953380;28;20070;-75
2023/11/17 08:59:05;;;;;;;5.38;4.30;;;8.20;79.50;;;;;;4921733;29;20472;-85
2023/11/17 09:01:32;;;;;;;5.13;4.20;;;8.20;79.60;;;;;;4943595;29;20039;-85
2023/11/17 09:03:58;;;;;;;5.30;4.38;;;8.20;79.50;;;;;;4941577;29;20043;-84
2023/11/17 09:06:24;;;;;;;5.60;4.40;;;8.20;79.50;;;;;;4941007;29;20416;-85
2023/11/17 09:08:50;;;;;;;5.30;4.10;;;8.20;79.50;;;;;;4943065;29;20039;-85
2023/11/17 09:11:16;;;;;;;5.05;4.20;;;8.20;79.50;;;;;;4957228;29;20086;-86
2023/11/17 09:13:43;;;;;;;5.22;4.50;;;8.20;79.50;;;;;;4940988;29;20083;-86
2023/11/17 09:16:09;;;;;;;5.25;4.22;;;8.30;79.50;;;;;;4956884;29;20041;-85
2023/11/17 09:18:35;;;;;;;5.00;4.03;;;8.30;79.50;;;;;;4941589;29;20045;-86
2023/11/17 09:21:05;;;;;;;5.47;4.15;;;8.30;79.50;;;;;;4958216;29;20031;-86
2023/11/17 09:23:34;;;;;;;6.13;4.60;;;8.30;79.50;;;;;;4941025;29;20037;-86
2023/11/17 09:26:05;;;;;;;5.05;4.22;;;8.30;79.50;;;;;;4940727;29;20468;-86
2023/11/17 09:28:31;;;;;;;5.25;4.20;;;8.30;79.50;;;;;;4940981;29;20043;-85
2023/11/17 09:31:00;;;;;;;5.68;4.53;;;8.30;79.50;;;;;;4941077;29;20551;-85
2023/11/17 09:33:26;;;;;;;5.65;4.35;;;8.30;79.50;;;;;;4924825;29;20035;-85
2023/11/17 09:35:53;;;;;;;6.25;4.97;;;8.40;79.50;;;;;;4956007;29;20035;-85
2023/11/17 09:38:19;;;;;;;5.43;4.43;;;8.40;79.50;;;;;;4956833;29;20032;-90
2023/11/17 09:40:51;;;;;;;5.75;4.40;;;8.40;79.50;;;;;;4956227;29;20031;-82
2023/11/17 09:43:19;;;;;;;5.63;4.25;;;8.40;79.50;;;;;;4938693;29;20043;-86
2023/11/17 09:45:47;;;;;;;5.63;4.57;;;8.40;79.50;;;;;;4958128;29;20487;-87
2023/11/17 09:48:14;;;;;;;5.40;4.72;;;8.40;79.50;;;;;;4957601;29;20070;-87
2023/11/17 09:50:45;;;;;;;6.32;5.22;;;8.40;79.50;;;;;;4941824;29;20337;-87
2023/11/17 09:53:15;;;;;;;5.40;4.47;;;8.50;79.60;;;;;;4958309;29;20031;-87
2023/11/17 09:55:43;;;;;;;5.70;4.70;;;8.50;79.60;;;;;;4956988;29;20038;-87
2023/11/17 09:58:11;;;;;;;6.10;4.82;;;8.50;79.60;;;;;;4957518;29;20078;-87
2023/11/17 10:00:37;;;;;;;5.68;4.88;;;8.50;79.60;;;;;;4939949;29;20114;-87
2023/11/17 10:03:05;;;;;;;5.70;4.68;;;8.50;79.70;;;;;;4956394;29;20032;-87
2023/11/17 10:05:34;;;;;;;6.78;4.97;;;8.60;79.70;;;;;;4956069;29;20441;-87
2023/11/17 10:08:14;;;;;;;5.38;4.45;;;8.60;79.70;;;;;;4943250;29;20098;-87
2023/11/17 10:10:44;;;;;;;5.60;4.22;;;8.60;79.70;;;;;;4944596;29;20066;-88
2023/11/17 10:13:12;;;;;;;4.88;4.20;;;8.60;79.60;;;;;;4961005;29;20031;-87
2023/11/17 10:15:52;;;;;;;6.18;5.07;;;8.60;79.70;;;;;;4959628;29;20043;-86
2023/11/17 10:18:24;;;;;;;4.72;3.92;;;8.60;79.70;;;;;;4944593;29;20035;-86
2023/11/17 10:20:50;;;;;;;5.40;4.55;;;8.70;79.70;;;;;;4944489;29;20027;-87
2023/11/17 10:23:17;;;;;;;5.55;4.40;;;8.70;79.60;;;;;;4943695;29;20031;-87
2023/11/17 10:25:43;;;;;;;5.45;4.45;;;8.70;79.70;;;;;;4942979;29;20090;-86
2023/11/17 10:28:09;;;;;;;5.80;4.57;;;8.80;79.70;;;;;;4943486;29;20031;-87
2023/11/17 10:30:41;;;;;;;5.80;4.45;;;8.80;79.70;;;;;;4943908;29;20031;-87
2023/11/17 10:33:29;;;;;;;5.50;4.53;;;8.80;79.70;;;;;;4913197;29;20089;-87
2023/11/17 10:36:11;;;;;;;5.47;4.55;;;8.80;79.80;;;;;;4959833;29;20035;-87
2023/11/17 10:38:39;;;;;;;5.60;4.53;;;8.90;79.70;;;;;;4960614;29;20074;-87
2023/11/17 10:41:30;;;;;;;5.70;4.50;;;8.90;79.70;;;;;;4959930;29;20476;-86
2023/11/17 10:43:58;;;;;;;5.43;4.55;;;8.90;79.80;;;;;;4944276;29;20043;-87
2023/11/17 10:46:44;;;;;;;5.90;4.57;;;8.90;79.60;;;;;;4958739;29;20062;-86
2023/11/17 10:49:22;;;;;;;6.18;4.47;;;9.00;79.70;;;;;;4943862;29;20031;-85
2023/11/17 10:51:49;;;;;;;5.70;4.70;;;9.00;79.70;;;;;;4959541;29;20031;-85
2023/11/17 10:54:16;;;;;;;5.20;4.35;;;9.00;79.70;;;;;;4959019;29;20031;-85
2023/11/17 10:56:49;;;;;;;5.10;4.32;;;9.00;79.60;;;;;;4945543;29;20032;-85
2023/11/17 10:59:17;;;;;;;6.00;4.55;;;9.10;79.70;;;;;;4943634;29;20027;-85
2023/11/17 11:01:44;;;;;;;5.45;4.50;;;9.10;79.70;;;;;;4942124;29;20038;-85
2023/11/17 11:04:15;;;;;;;5.80;4.55;;;9.10;79.70;;;;;;4959639;29;20034;-85
2023/11/17 11:06:45;;;;;;;5.47;4.65;;;9.10;79.70;;;;;;4958710;29;20035;-84
2023/11/17 11:13:05;;;;;;;5.30;3.80;;;9.20;79.80;;;;;;5195339;23;20032;-74
2023/11/17 11:15:32;;;;;;;5.75;4.30;;;9.20;79.50;;;;;;4926111;29;20051;-84
2023/11/17 11:18:03;;;;;;;5.60;4.43;;;9.20;79.60;;;;;;4939925;29;20028;-85
2023/11/17 11:20:31;;;;;;;6.60;4.57;;;9.20;79.60;;;;;;4923539;29;20456;-84
2023/11/17 11:22:58;;;;;;;5.65;4.60;;;9.30;79.70;;;;;;4940187;29;20131;-89
2023/11/17 11:25:28;;;;;;;5.95;4.30;;;9.30;79.70;;;;;;4923830;29;20031;-88
2023/11/17 11:27:57;;;;;;;5.85;4.72;;;9.40;79.80;;;;;;4940363;29;20465;-88
2023/11/17 11:30:24;;;;;;;6.20;4.75;;;9.40;79.70;;;;;;4940128;29;20116;-82
2023/11/17 11:32:51;;;;;;;5.38;4.20;;;9.40;79.70;;;;;;4955057;29;20031;-83
2023/11/17 11:35:17;;;;;;;6.10;4.53;;;9.50;79.70;;;;;;4938117;29;20400;-83
2023/11/17 11:37:43;;;;;;;5.40;4.05;;;9.50;79.70;;;;;;4938203;29;20035;-83
2023/11/17 11:40:12;;;;;;;5.32;4.20;;;9.50;79.70;;;;;;4953621;29;20033;-83
2023/11/17 11:42:42;;;;;;;5.30;4.00;;;9.60;79.80;;;;;;4938547;29;20036;-83
2023/11/17 11:45:16;;;;;;;5.22;4.05;;;9.60;79.80;;;;;;4922141;29;20515;-84
2023/11/17 11:47:49;;;;;;;6.28;4.70;;;9.60;79.80;;;;;;4953979;29;20044;-83
2023/11/17 11:50:22;;;;;;;5.78;4.30;;;9.70;79.80;;;;;;4937784;29;20028;-82
2023/11/17 11:53:05;;;;;;;5.47;4.15;;;9.70;79.80;;;;;;4938664;29;20032;-83
2023/11/17 11:55:33;;;;;;;5.60;4.30;;;9.70;79.80;;;;;;4922121;29;20032;-85
2023/11/17 11:58:03;;;;;;;5.15;3.88;;;9.80;79.70;;;;;;4938345;29;20041;-86
2023/11/17 12:00:31;;;;;;;5.75;4.63;;;9.80;79.70;;;;;;4940028;29;20035;-86
2023/11/17 12:03:07;;;;;;;5.88;4.22;;;9.80;79.70;;;;;;4939314;29;20053;-85
2023/11/17 12:05:35;;;;;;;5.00;4.10;;;9.90;79.80;;;;;;4924710;29;20536;-84
2023/11/17 12:08:03;;;;;;;5.35;4.25;;;9.90;79.70;;;;;;4924434;29;20114;-86
2023/11/17 12:10:48;;;;;;;5.50;3.90;;;10.00;79.70;;;;;;4939613;29;20040;-84
2023/11/17 12:13:37;;;;;;;5.35;4.10;;;10.00;79.70;;;;;;4939544;29;20511;-87
2023/11/17 12:16:09;;;;;;;4.55;3.65;;;10.10;79.70;;;;;;4923571;29;20070;-90
2023/11/17 12:18:35;;;;;;;5.10;3.83;;;10.10;79.50;;;;;;4941683;29;20032;-91
2023/11/17 12:21:17;;;;;;;5.10;4.00;;;10.10;79.50;;;;;;4938419;29;20035;-91
2023/11/17 12:23:55;;;;;;;4.70;3.70;;;10.20;79.60;;;;;;4923041;29;20127;-90
2023/11/17 12:26:26;;;;;;;4.93;3.70;;;10.20;79.50;;;;;;4940684;29;20134;-92
2023/11/17 12:28:59;;;;;;;4.15;3.67;;;10.30;79.50;;;;;;4956032;29;20031;-94
2023/11/17 12:31:31;;;;;;;4.88;3.65;;;10.30;79.50;;;;;;4938261;29;20032;-83
2023/11/17 12:33:57;;;;;;;4.70;3.60;;;10.30;79.50;;;;;;4938349;29;20198;-84
2023/11/17 12:36:26;;;;;;;4.63;3.47;;;10.40;79.40;;;;;;4938506;29;20098;-84
2023/11/17 12:38:57;;;;;;;5.20;3.55;;;10.40;79.40;;;;;;4938465;29;20055;-83
2023/11/17 12:41:25;;;;;;;4.45;3.20;;;10.40;79.40;;;;;;4922035;29;20413;-83
2023/11/17 12:43:55;;;;;;;4.13;3.10;;;10.40;79.40;;;;;;4936662;29;20095;-83
2023/11/17 12:46:24;;;;;;;4.47;3.28;;;10.50;79.40;;;;;;4937131;29;20063;-83
2023/11/17 12:48:51;;;;;;;4.88;3.50;;;10.50;79.40;;;;;;4921290;29;20032;-84
2023/11/17 12:51:27;;;;;;;3.70;3.00;;;10.60;79.40;;;;;;4936558;29;20074;-84
2023/11/17 12:53:55;;;;;;;3.38;2.85;;;10.70;79.40;;;;;;4937094;29;20035;-84
2023/11/17 12:56:22;;;;;;;4.05;3.20;;;10.70;79.20;;;;;;4937603;29;20039;-84
2023/11/17 12:58:49;;;;;;;4.22;3.28;;;10.70;79.30;;;;;;4920924;29;20500;-87
2023/11/17 13:01:20;;;;;;;3.97;3.03;;;10.80;79.10;;;;;;4937715;29;20031;-86
2023/11/17 13:03:56;;;;;;;4.30;3.10;;;10.80;79.00;;;;;;4937382;29;20032;-87
2023/11/17 13:06:25;;;;;;;3.95;3.30;;;10.90;78.90;;;;;;4937173;29;20123;-87
2023/11/17 13:08:52;;;;;;;3.65;2.83;;;10.90;78.90;;;;;;4936892;29;20123;-86
2023/11/17 13:11:17;;;;;;;4.25;3.10;;;10.90;79.00;;;;;;4906817;29;20039;-84
2023/11/17 13:13:45;;;;;;;3.83;2.80;;;10.90;79.00;;;;;;4937272;29;20071;-86
2023/11/17 13:16:18;;;;;;;3.35;2.65;;;10.90;79.10;;;;;;4937594;29;20048;-88
2023/11/17 13:18:50;;;;;;;3.72;2.70;;;10.90;79.20;;;;;;4937368;29;20039;-84
2023/11/17 13:21:18;;;;;;;3.47;2.75;;;10.90;79.30;;;;;;4937486;29;20035;-85
2023/11/17 13:23:45;;;;;;;3.53;2.75;;;11.00;79.30;;;;;;4937350;29;20175;-83
2023/11/17 13:26:26;;;;;;;3.30;2.85;;;11.00;79.30;;;;;;4937937;29;20535;-83
2023/11/17 13:28:54;;;;;;;3.58;2.85;;;11.00;79.50;;;;;;4937330;29;20042;-83
2023/11/17 13:31:27;;;;;;;4.05;2.97;;;11.00;79.40;;;;;;4938621;29;20054;-84
2023/11/17 13:33:58;;;;;;;3.30;2.67;;;11.00;79.50;;;;;;4937557;29;20032;-83
2023/11/17 13:36:30;;;;;;;3.95;2.78;;;11.00;79.50;;;;;;4953543;29;20491;-85
2023/11/17 13:39:18;;;;;;;3.60;2.85;;;11.00;79.50;;;;;;4938053;29;20492;-84
2023/11/17 13:41:51;;;;;;;4.43;2.80;;;11.00;79.70;;;;;;4937551;29;20114;-84
2023/11/17 13:44:25;;;;;;;3.13;2.50;;;11.10;79.60;;;;;;4941077;29;20118;-84
2023/11/17 13:46:55;;;;;;;3.47;2.70;;;11.00;79.60;;;;;;4925729;29;20040;-84
2023/11/17 13:49:23;;;;;;;3.53;2.75;;;11.10;79.70;;;;;;4940568;29;20050;-85
2023/11/17 13:51:56;;;;;;;3.78;2.80;;;11.10;79.70;;;;;;4940341;29;20035;-87
2023/11/17 13:54:27;;;;;;;3.22;2.80;;;11.10;79.70;;;;;;4925821;29;20090;-85
2023/11/17 13:56:54;;;;;;;3.75;2.80;;;11.10;79.70;;;;;;4925331;29;20028;-85
2023/11/17 13:59:25;;;;;;;3.90;2.92;;;11.10;79.70;;;;;;4941558;29;20054;-86
2023/11/17 14:02:04;;;;;;;3.67;2.63;;;11.10;79.80;;;;;;4940857;29;20088;-87
2023/11/17 14:04:31;;;;;;;3.92;2.83;;;11.10;80.40;;;;;;4962649;29;20296;-84
2023/11/17 14:06:57;;;;;;;3.63;2.88;;;11.10;79.70;;;;;;4940185;29;20092;-84
2023/11/17 14:09:28;;;;;;;4.60;3.10;;;11.10;79.70;;;;;;4941485;29;20031;-82
2023/11/17 14:11:57;;;;;;;4.20;3.10;;;11.20;79.80;;;;;;4926566;29;20062;-88
2023/11/17 14:14:41;;;;;;;4.35;2.95;;;11.20;79.80;;;;;;4941823;29;20444;-86
2023/11/17 14:17:07;;;;;;;4.45;3.30;;;11.20;79.70;;;;;;4942394;29;20027;-87
2023/11/17 14:19:34;;;;;;;3.75;2.95;;;11.20;79.70;;;;;;4925778;29;20122;-85
2023/11/17 14:22:00;;;;;;;4.18;2.92;;;11.20;79.70;;;;;;4941915;29;20035;-87
2023/11/17 14:24:26;;;;;;;3.92;2.80;;;11.20;79.60;;;;;;4940484;29;20028;-87
2023/11/17 14:26:59;;;;;;;3.78;2.83;;;11.20;79.60;;;;;;4924886;29;20477;-86
2023/11/17 14:29:31;;;;;;;4.35;3.17;;;11.20;79.60;;;;;;4956476;29;20035;-86
2023/11/17 14:32:43;;;;;;;4.57;3.08;;;11.20;79.60;;;;;;4941522;29;20081;-88
2023/11/17 14:36:05;;;;;;;4.05;3.05;;;11.30;79.60;;;;;;4938929;29;20044;-85
2023/11/17 14:38:32;;;;;;;3.72;2.83;;;11.20;79.70;;;;;;4906282;29;20054;-84